createdAt,value
2022-11-10T00:00:14.927Z,10.16
2022-11-10T00:01:14.940Z,10.16
2022-11-10T00:02:14.918Z,10.15
2022-11-10T00:03:14.888Z,10.13
2022-11-10T00:04:14.950Z,10.13
2022-11-10T00:05:14.880Z,10.12
2022-11-10T00:06:14.892Z,10.12
2022-11-10T00:07:14.931Z,10.09
2022-11-10T00:08:14.858Z,10.09
2022-11-10T00:09:14.858Z,10.09
2022-11-10T00:10:14.831Z,10.07
2022-11-10T00:11:14.838Z,10.05
2022-11-10T00:12:14.822Z,10.05
2022-11-10T00:13:14.797Z,10.04
2022-11-10T00:14:14.786Z,10.04
2022-11-10T00:15:14.793Z,10.04
2022-11-10T00:16:14.780Z,10.02
2022-11-10T00:17:14.791Z,10.02
2022-11-10T00:18:14.759Z,9.99
2022-11-10T00:19:14.737Z,9.99
2022-11-10T00:20:14.724Z,9.99
2022-11-10T00:21:14.736Z,9.98
2022-11-10T00:22:14.703Z,9.97
2022-11-10T00:23:14.693Z,9.97
2022-11-10T00:24:14.699Z,9.98
2022-11-10T00:25:14.741Z,9.97
2022-11-10T00:26:14.682Z,9.98
2022-11-10T00:27:14.664Z,9.97
2022-11-10T00:28:14.632Z,9.97
2022-11-10T00:29:14.664Z,9.97
2022-11-10T00:30:14.611Z,9.95
2022-11-10T00:31:14.615Z,9.95
2022-11-10T00:32:14.624Z,9.97
2022-11-10T00:33:14.601Z,9.94
2022-11-10T00:34:14.592Z,9.95
2022-11-10T00:35:14.598Z,9.94
2022-11-10T00:36:14.551Z,9.94
2022-11-10T00:37:14.556Z,9.94
2022-11-10T00:38:14.558Z,9.94
2022-11-10T00:39:14.547Z,9.94
2022-11-10T00:40:14.528Z,9.94
2022-11-10T00:41:14.520Z,9.91
2022-11-10T00:42:14.491Z,9.91
2022-11-10T00:43:14.505Z,9.94
2022-11-10T00:44:14.516Z,9.91
2022-11-10T00:45:14.484Z,9.91
2022-11-10T00:46:14.445Z,9.92
2022-11-10T00:47:14.456Z,9.92
2022-11-10T00:48:14.501Z,9.89
2022-11-10T00:49:14.855Z,9.87
2022-11-10T00:50:14.414Z,9.87
2022-11-10T00:51:14.406Z,9.87
2022-11-10T00:52:14.386Z,9.86
2022-11-10T00:53:14.410Z,9.84
2022-11-10T00:54:14.402Z,9.84
2022-11-10T00:55:14.371Z,9.83
2022-11-10T00:56:14.356Z,9.84
2022-11-10T00:57:14.416Z,9.83
2022-11-10T00:58:14.462Z,9.83
2022-11-10T00:59:14.327Z,9.83
2022-11-10T01:00:14.335Z,9.80
2022-11-10T01:01:14.372Z,9.83
2022-11-10T01:02:14.306Z,9.83
2022-11-10T01:03:14.309Z,9.82
2022-11-10T01:04:14.281Z,9.82
2022-11-10T01:05:14.273Z,9.80
2022-11-10T01:06:14.263Z,9.82
2022-11-10T01:07:14.282Z,9.79
2022-11-10T01:08:14.234Z,9.79
2022-11-10T01:09:14.242Z,9.80
2022-11-10T01:10:14.211Z,9.80
2022-11-10T01:11:14.195Z,9.79
2022-11-10T01:12:14.186Z,9.80
2022-11-10T01:13:14.178Z,9.77
2022-11-10T01:14:14.181Z,9.79
2022-11-10T01:15:14.187Z,9.76
2022-11-10T01:16:14.162Z,9.77
2022-11-10T01:17:14.126Z,9.77
2022-11-10T01:18:14.155Z,9.77
2022-11-10T01:19:14.119Z,9.79
2022-11-10T01:20:14.133Z,9.77
2022-11-10T01:21:14.107Z,9.79
2022-11-10T01:22:14.108Z,9.77
2022-11-10T01:23:14.076Z,9.79
2022-11-10T01:24:14.101Z,9.76
2022-11-10T01:25:14.070Z,9.74
2022-11-10T01:26:14.080Z,9.76
2022-11-10T01:27:14.048Z,9.76
2022-11-10T01:28:14.046Z,9.76
2022-11-10T01:29:14.009Z,9.76
2022-11-10T01:30:14.032Z,9.76
2022-11-10T01:31:14.017Z,9.77
2022-11-10T01:32:14.011Z,9.77
2022-11-10T01:33:13.964Z,9.76
2022-11-10T01:34:13.976Z,9.76
2022-11-10T01:35:13.960Z,9.76
2022-11-10T01:36:13.953Z,9.77
2022-11-10T01:37:13.943Z,9.77
2022-11-10T01:38:13.955Z,9.77
2022-11-10T01:39:13.923Z,9.77
2022-11-10T01:40:13.974Z,9.77
2022-11-10T01:41:13.895Z,9.76
2022-11-10T01:42:13.991Z,9.77
2022-11-10T01:43:13.949Z,9.77
2022-11-10T01:44:13.875Z,9.76
2022-11-10T01:45:13.870Z,9.79
2022-11-10T01:46:13.859Z,9.77
2022-11-10T01:47:13.900Z,9.76
2022-11-10T01:48:13.889Z,9.74
2022-11-10T01:49:13.809Z,9.76
2022-11-10T01:50:13.805Z,9.76
2022-11-10T01:51:13.787Z,9.76
2022-11-10T01:52:13.807Z,9.74
2022-11-10T01:53:13.781Z,9.74
2022-11-10T01:54:13.760Z,9.76
2022-11-10T01:55:13.748Z,9.76
2022-11-10T01:56:13.770Z,9.74
2022-11-10T01:57:13.739Z,9.73
2022-11-10T01:58:13.730Z,9.74
2022-11-10T01:59:13.705Z,9.73
2022-11-10T02:00:13.742Z,9.72
2022-11-10T02:01:13.770Z,9.72
2022-11-10T02:02:13.711Z,9.73
2022-11-10T02:03:13.665Z,9.74
2022-11-10T02:04:13.669Z,9.74
2022-11-10T02:05:13.649Z,9.73
2022-11-10T02:06:13.657Z,9.73
2022-11-10T02:07:13.689Z,9.73
2022-11-10T02:08:13.619Z,9.73
2022-11-10T02:09:13.618Z,9.72
2022-11-10T02:10:13.599Z,9.72
2022-11-10T02:11:13.643Z,9.68
2022-11-10T02:12:13.576Z,9.69
2022-11-10T02:13:13.576Z,9.66
2022-11-10T02:14:13.560Z,9.66
2022-11-10T02:15:13.574Z,9.65
2022-11-10T02:16:13.578Z,9.65
2022-11-10T02:17:13.525Z,9.65
2022-11-10T02:18:13.552Z,9.66
2022-11-10T02:19:13.511Z,9.66
2022-11-10T02:20:13.513Z,9.66
2022-11-10T02:21:13.486Z,9.66
2022-11-10T02:22:13.500Z,9.68
2022-11-10T02:23:13.503Z,9.65
2022-11-10T02:24:13.499Z,9.64
2022-11-10T02:25:13.450Z,9.64
2022-11-10T02:26:13.439Z,9.65
2022-11-10T02:27:13.472Z,9.66
2022-11-10T02:28:13.418Z,9.65
2022-11-10T02:29:13.423Z,9.65
2022-11-10T02:30:13.412Z,9.65
2022-11-10T02:31:13.404Z,9.64
2022-11-10T02:32:13.378Z,9.65
2022-11-10T02:33:13.406Z,9.65
2022-11-10T02:34:13.404Z,9.66
2022-11-10T02:35:13.372Z,9.66
2022-11-10T02:36:13.334Z,9.65
2022-11-10T02:37:13.315Z,9.64
2022-11-10T02:38:13.340Z,9.62
2022-11-10T02:39:13.308Z,9.62
2022-11-10T02:40:13.324Z,9.61
2022-11-10T02:41:13.288Z,9.61
2022-11-10T02:42:13.307Z,9.59
2022-11-10T02:43:13.313Z,9.59
2022-11-10T02:44:13.294Z,9.59
2022-11-10T02:45:13.273Z,9.58
2022-11-10T02:46:13.271Z,9.59
2022-11-10T02:47:13.239Z,9.61
2022-11-10T02:48:13.249Z,9.59
2022-11-10T02:49:13.220Z,9.58
2022-11-10T02:50:13.272Z,9.58
2022-11-10T02:51:13.163Z,9.59
2022-11-10T02:52:13.225Z,9.58
2022-11-10T02:53:13.162Z,9.59
2022-11-10T02:54:13.155Z,9.58
2022-11-10T02:55:13.228Z,9.58
2022-11-10T02:56:13.144Z,9.59
2022-11-10T02:57:13.161Z,9.61
2022-11-10T02:58:13.132Z,9.58
2022-11-10T02:59:13.100Z,9.59
2022-11-10T03:00:13.125Z,9.58
2022-11-10T03:01:13.143Z,9.58
2022-11-10T03:02:13.112Z,9.58
2022-11-10T03:03:13.073Z,9.58
2022-11-10T03:04:13.050Z,9.59
2022-11-10T03:05:13.069Z,9.59
2022-11-10T03:06:13.039Z,9.61
2022-11-10T03:07:13.088Z,9.64
2022-11-10T03:08:13.021Z,9.65
2022-11-10T03:09:12.998Z,9.66
2022-11-10T03:10:13.005Z,9.66
2022-11-10T03:11:12.988Z,9.69
2022-11-10T03:12:12.986Z,9.69
2022-11-10T03:13:12.949Z,9.69
2022-11-10T03:14:12.937Z,9.72
2022-11-10T03:15:12.934Z,9.72
2022-11-10T03:16:12.965Z,9.69
2022-11-10T03:17:12.921Z,9.69
2022-11-10T03:18:12.896Z,9.72
2022-11-10T03:19:12.880Z,9.69
2022-11-10T03:20:12.916Z,9.69
2022-11-10T03:21:12.895Z,9.69
2022-11-10T03:22:12.881Z,9.73
2022-11-10T03:23:12.860Z,9.69
2022-11-10T03:24:12.848Z,9.72
2022-11-10T03:25:12.847Z,9.73
2022-11-10T03:26:12.843Z,9.73
2022-11-10T03:27:12.826Z,9.74
2022-11-10T03:28:12.839Z,9.74
2022-11-10T03:29:12.802Z,9.74
2022-11-10T03:30:12.784Z,9.76
2022-11-10T03:31:12.761Z,9.76
2022-11-10T03:32:12.795Z,9.76
2022-11-10T03:33:12.777Z,9.76
2022-11-10T03:34:12.759Z,9.76
2022-11-10T03:35:12.706Z,9.77
2022-11-10T03:36:12.720Z,9.77
2022-11-10T03:37:12.739Z,9.77
2022-11-10T03:38:12.714Z,9.77
2022-11-10T03:39:12.691Z,9.77
2022-11-10T03:40:12.696Z,9.79
2022-11-10T03:41:19.252Z,9.77
2022-11-10T03:42:12.718Z,9.79
2022-11-10T03:43:12.634Z,9.80
2022-11-10T03:44:12.637Z,9.80
2022-11-10T03:45:12.640Z,9.79
2022-11-10T03:46:12.620Z,9.80
2022-11-10T03:47:12.623Z,9.79
2022-11-10T03:48:12.613Z,9.79
2022-11-10T03:49:12.600Z,9.82
2022-11-10T03:50:12.590Z,9.79
2022-11-10T03:51:12.561Z,9.82
2022-11-10T03:52:12.603Z,9.80
2022-11-10T03:53:12.544Z,9.80
2022-11-10T03:54:12.537Z,9.80
2022-11-10T03:55:12.536Z,9.82
2022-11-10T03:56:12.551Z,9.80
2022-11-10T03:57:12.517Z,9.80
2022-11-10T03:58:12.518Z,9.79
2022-11-10T03:59:12.477Z,9.79
2022-11-10T04:00:12.467Z,9.77
2022-11-10T04:01:12.475Z,9.77
2022-11-10T04:02:12.550Z,9.77
2022-11-10T04:03:12.433Z,9.79
2022-11-10T04:04:12.455Z,9.80
2022-11-10T04:05:12.407Z,9.77
2022-11-10T04:06:12.409Z,9.77
2022-11-10T04:07:12.488Z,9.77
2022-11-10T04:08:12.388Z,9.80
2022-11-10T04:09:12.372Z,9.80
2022-11-10T04:10:12.397Z,9.79
2022-11-10T04:11:12.374Z,9.80
2022-11-10T04:12:12.341Z,9.80
2022-11-10T04:13:12.360Z,9.77
2022-11-10T04:14:12.337Z,9.79
2022-11-10T04:15:12.326Z,9.77
2022-11-10T04:16:12.339Z,9.77
2022-11-10T04:17:12.314Z,9.79
2022-11-10T04:18:12.289Z,9.77
2022-11-10T04:19:12.280Z,9.76
2022-11-10T04:20:12.290Z,9.76
2022-11-10T04:21:12.280Z,9.74
2022-11-10T04:22:12.241Z,9.74
2022-11-10T04:23:12.277Z,9.72
2022-11-10T04:24:12.255Z,9.73
2022-11-10T04:25:12.214Z,9.74
2022-11-10T04:26:12.226Z,9.72
2022-11-10T04:27:12.199Z,9.72
2022-11-10T04:28:12.218Z,9.72
2022-11-10T04:29:12.224Z,9.68
2022-11-10T04:30:12.164Z,9.66
2022-11-10T04:31:12.172Z,9.66
2022-11-10T04:32:12.143Z,9.66
2022-11-10T04:33:12.170Z,9.65
2022-11-10T04:34:12.161Z,9.65
2022-11-10T04:35:12.105Z,9.64
2022-11-10T04:36:12.109Z,9.62
2022-11-10T04:37:12.088Z,9.65
2022-11-10T04:38:12.093Z,9.65
2022-11-10T04:39:12.079Z,9.68
2022-11-10T04:40:12.087Z,9.66
2022-11-10T04:41:12.055Z,9.66
2022-11-10T04:42:12.086Z,9.66
2022-11-10T04:43:12.035Z,9.65
2022-11-10T04:44:12.104Z,9.66
2022-11-10T04:45:12.013Z,9.65
2022-11-10T04:46:12.004Z,9.65
2022-11-10T04:47:12.270Z,9.65
2022-11-10T04:48:12.012Z,9.64
2022-11-10T04:49:11.958Z,9.64
2022-11-10T04:50:12.008Z,9.62
2022-11-10T04:51:12.007Z,9.59
2022-11-10T04:52:11.940Z,9.61
2022-11-10T04:53:11.937Z,9.61
2022-11-10T04:54:11.928Z,9.61
2022-11-10T04:55:11.928Z,9.62
2022-11-10T04:56:11.926Z,9.61
2022-11-10T04:57:11.896Z,9.59
2022-11-10T04:58:11.893Z,9.62
2022-11-10T04:59:11.869Z,9.59
2022-11-10T05:00:11.857Z,9.58
2022-11-10T05:01:11.917Z,9.56
2022-11-10T05:02:11.836Z,9.56
2022-11-10T05:03:11.880Z,9.58
2022-11-10T05:04:11.822Z,9.56
2022-11-10T05:05:11.797Z,9.58
2022-11-10T05:06:11.847Z,9.56
2022-11-10T05:07:11.820Z,9.58
2022-11-10T05:08:11.779Z,9.58
2022-11-10T05:09:11.794Z,9.58
2022-11-10T05:10:11.774Z,9.58
2022-11-10T05:11:11.756Z,9.58
2022-11-10T05:12:11.747Z,9.59
2022-11-10T05:13:11.733Z,9.59
2022-11-10T05:14:11.705Z,9.59
2022-11-10T05:15:11.718Z,9.58
2022-11-10T05:16:11.720Z,9.59
2022-11-10T05:17:11.693Z,9.56
2022-11-10T05:18:11.656Z,9.59
2022-11-10T05:19:11.685Z,9.58
2022-11-10T05:20:11.700Z,9.59
2022-11-10T05:21:11.666Z,9.58
2022-11-10T05:22:11.633Z,9.58
2022-11-10T05:23:11.622Z,9.56
2022-11-10T05:24:11.618Z,9.56
2022-11-10T05:25:11.603Z,9.56
2022-11-10T05:26:11.622Z,9.55
2022-11-10T05:27:11.620Z,9.55
2022-11-10T05:28:11.558Z,9.51
2022-11-10T05:29:11.578Z,9.51
2022-11-10T05:30:11.530Z,9.48
2022-11-10T05:31:11.562Z,9.48
2022-11-10T05:32:11.567Z,9.46
2022-11-10T05:33:11.535Z,9.50
2022-11-10T05:34:11.514Z,9.47
2022-11-10T05:35:11.513Z,9.47
2022-11-10T05:36:11.498Z,9.46
2022-11-10T05:37:11.520Z,9.46
2022-11-10T05:38:11.486Z,9.46
2022-11-10T05:39:11.454Z,9.44
2022-11-10T05:40:11.459Z,9.44
2022-11-10T05:41:11.436Z,9.41
2022-11-10T05:42:11.489Z,9.41
2022-11-10T05:43:11.463Z,9.41
2022-11-10T05:44:11.427Z,9.41
2022-11-10T05:45:11.407Z,9.41
2022-11-10T05:46:11.374Z,9.39
2022-11-10T05:47:11.386Z,9.40
2022-11-10T05:48:11.376Z,9.40
2022-11-10T05:49:11.410Z,9.39
2022-11-10T05:50:11.340Z,9.40
2022-11-10T05:51:11.337Z,9.40
2022-11-10T05:52:11.346Z,9.40
2022-11-10T05:53:11.339Z,9.43
2022-11-10T05:54:11.312Z,9.43
2022-11-10T05:55:11.373Z,9.41
2022-11-10T05:56:11.295Z,9.44
2022-11-10T05:57:11.271Z,9.46
2022-11-10T05:58:11.251Z,9.47
2022-11-10T05:59:11.307Z,9.46
2022-11-10T06:00:11.243Z,9.48
2022-11-10T06:01:11.247Z,9.48
2022-11-10T06:02:11.247Z,9.47
2022-11-10T06:03:11.287Z,9.48
2022-11-10T06:04:11.158Z,9.48
2022-11-10T06:05:11.242Z,9.48
2022-11-10T06:06:11.231Z,9.44
2022-11-10T06:07:11.188Z,9.46
2022-11-10T06:08:11.090Z,9.46
2022-11-10T06:09:11.131Z,9.46
2022-11-10T06:10:11.088Z,9.44
2022-11-10T06:11:11.104Z,9.44
2022-11-10T06:12:11.070Z,9.43
2022-11-10T06:13:11.110Z,9.43
2022-11-10T06:14:11.080Z,9.41
2022-11-10T06:15:11.074Z,9.40
2022-11-10T06:16:11.026Z,9.40
2022-11-10T06:17:11.015Z,9.40
2022-11-10T06:18:11.008Z,9.41
2022-11-10T06:19:11.008Z,9.43
2022-11-10T06:20:10.967Z,9.41
2022-11-10T06:21:10.999Z,9.41
2022-11-10T06:22:10.979Z,9.40
2022-11-10T06:23:10.951Z,9.39
2022-11-10T06:24:10.956Z,9.36
2022-11-10T06:25:10.938Z,9.37
2022-11-10T06:26:10.926Z,9.37
2022-11-10T06:27:10.947Z,9.37
2022-11-10T06:28:10.930Z,9.37
2022-11-10T06:29:10.893Z,9.39
2022-11-10T06:30:10.863Z,9.39
2022-11-10T06:31:10.887Z,9.37
2022-11-10T06:32:10.901Z,9.37
2022-11-10T06:33:10.864Z,9.39
2022-11-10T06:34:10.827Z,9.37
2022-11-10T06:35:10.899Z,9.39
2022-11-10T06:36:10.825Z,9.37
2022-11-10T06:37:10.825Z,9.37
2022-11-10T06:38:10.852Z,9.40
2022-11-10T06:39:10.868Z,9.40
2022-11-10T06:40:10.798Z,9.39
2022-11-10T06:41:10.773Z,9.40
2022-11-10T06:42:10.763Z,9.39
2022-11-10T06:43:10.813Z,9.39
2022-11-10T06:44:10.790Z,9.40
2022-11-10T06:45:10.753Z,9.37
2022-11-10T06:46:10.703Z,9.34
2022-11-10T06:47:10.711Z,9.37
2022-11-10T06:48:10.728Z,9.37
2022-11-10T06:49:10.729Z,9.37
2022-11-10T06:50:10.684Z,9.34
2022-11-10T06:51:10.680Z,9.32
2022-11-10T06:52:10.647Z,9.34
2022-11-10T06:53:10.701Z,9.32
2022-11-10T06:54:10.634Z,9.32
2022-11-10T06:55:10.646Z,9.34
2022-11-10T06:56:10.616Z,9.36
2022-11-10T06:57:10.604Z,9.34
2022-11-10T06:58:10.623Z,9.32
2022-11-10T06:59:10.598Z,9.34
2022-11-10T07:00:10.577Z,9.34
2022-11-10T07:01:10.679Z,9.34
2022-11-10T07:02:10.557Z,9.34
2022-11-10T07:03:10.610Z,9.36
2022-11-10T07:04:19.562Z,9.32
2022-11-10T07:05:10.541Z,9.34
2022-11-10T07:06:10.509Z,9.36
2022-11-10T07:07:10.572Z,9.36
2022-11-10T07:08:10.498Z,9.34
2022-11-10T07:09:10.487Z,9.34
2022-11-10T07:10:10.476Z,9.34
2022-11-10T07:11:10.472Z,9.34
2022-11-10T07:12:10.480Z,9.36
2022-11-10T07:13:10.476Z,9.37
2022-11-10T07:14:10.455Z,9.37
2022-11-10T07:15:10.434Z,9.39
2022-11-10T07:16:10.408Z,9.40
2022-11-10T07:17:10.414Z,9.40
2022-11-10T07:18:10.421Z,9.41
2022-11-10T07:19:10.399Z,9.43
2022-11-10T07:20:10.402Z,9.43
2022-11-10T07:21:10.393Z,9.44
2022-11-10T07:22:11.415Z,9.46
2022-11-10T07:23:10.366Z,9.48
2022-11-10T07:24:10.332Z,9.50
2022-11-10T07:25:10.345Z,9.48
2022-11-10T07:26:10.343Z,9.50
2022-11-10T07:27:10.334Z,9.50
2022-11-10T07:28:10.283Z,9.51
2022-11-10T07:29:10.278Z,9.51
2022-11-10T07:30:10.266Z,9.56
2022-11-10T07:31:10.285Z,9.58
2022-11-10T07:32:10.280Z,9.58
2022-11-10T07:33:10.254Z,9.58
2022-11-10T07:34:10.236Z,9.61
2022-11-10T07:35:10.242Z,9.64
2022-11-10T07:36:10.249Z,9.64
2022-11-10T07:37:10.221Z,9.68
2022-11-10T07:38:10.208Z,9.69
2022-11-10T07:39:10.206Z,9.76
2022-11-10T07:40:10.164Z,9.79
2022-11-10T07:41:10.190Z,9.80
2022-11-10T07:42:10.215Z,9.83
2022-11-10T07:43:10.147Z,9.87
2022-11-10T07:44:10.154Z,9.91
2022-11-10T07:45:10.143Z,9.91
2022-11-10T07:46:10.102Z,9.91
2022-11-10T07:47:10.107Z,9.94
2022-11-10T07:48:10.106Z,9.94
2022-11-10T07:49:10.095Z,9.95
2022-11-10T07:50:10.075Z,9.95
2022-11-10T07:51:10.060Z,9.97
2022-11-10T07:52:10.054Z,9.97
2022-11-10T07:53:10.045Z,9.97
2022-11-10T07:54:10.047Z,9.97
2022-11-10T07:55:10.025Z,9.98
2022-11-10T07:56:10.038Z,9.97
2022-11-10T07:57:10.035Z,9.98
2022-11-10T07:58:09.977Z,9.98
2022-11-10T07:59:10.014Z,9.98
2022-11-10T08:00:09.993Z,10.01
2022-11-10T08:01:09.962Z,10.02
2022-11-10T08:02:09.984Z,10.02
2022-11-10T08:03:09.962Z,10.05
2022-11-10T08:04:09.962Z,10.09
2022-11-10T08:05:09.973Z,10.10
2022-11-10T08:06:09.938Z,10.15
2022-11-10T08:07:10.006Z,10.13
2022-11-10T08:08:09.890Z,10.15
2022-11-10T08:09:09.895Z,10.17
2022-11-10T08:10:09.871Z,10.17
2022-11-10T08:11:09.915Z,10.19
2022-11-10T08:12:09.852Z,10.20
2022-11-10T08:13:09.839Z,10.20
2022-11-10T08:14:09.825Z,10.23
2022-11-10T08:15:09.881Z,10.23
2022-11-10T08:16:09.830Z,10.25
2022-11-10T08:17:09.819Z,10.28
2022-11-10T08:18:09.787Z,10.31
2022-11-10T08:19:09.764Z,10.33
2022-11-10T08:20:09.805Z,10.34
2022-11-10T08:21:09.821Z,10.34
2022-11-10T08:22:09.784Z,10.34
2022-11-10T08:23:09.747Z,10.37
2022-11-10T08:24:09.736Z,10.38
2022-11-10T08:25:09.726Z,10.41
2022-11-10T08:26:09.709Z,10.44
2022-11-10T08:27:09.800Z,10.44
2022-11-10T08:28:09.690Z,10.49
2022-11-10T08:29:09.701Z,10.54
2022-11-10T08:30:09.696Z,10.57
2022-11-10T08:31:09.711Z,10.60
2022-11-10T08:32:09.635Z,10.61
2022-11-10T08:33:09.636Z,10.64
2022-11-10T08:34:09.636Z,10.69
2022-11-10T08:35:09.618Z,10.72
2022-11-10T08:36:09.596Z,10.75
2022-11-10T08:37:09.592Z,10.79
2022-11-10T08:38:10.020Z,10.82
2022-11-10T08:39:09.598Z,10.87
2022-11-10T08:40:09.539Z,10.89
2022-11-10T08:41:09.773Z,10.92
2022-11-10T08:42:09.542Z,10.96
2022-11-10T08:43:09.567Z,10.97
2022-11-10T08:44:11.210Z,11.04
2022-11-10T08:45:09.498Z,11.07
2022-11-10T08:46:09.516Z,11.07
2022-11-10T08:47:09.502Z,11.11
2022-11-10T08:48:09.538Z,11.14
2022-11-10T08:49:10.429Z,11.19
2022-11-10T08:50:09.478Z,11.27
2022-11-10T08:51:09.449Z,11.41
2022-11-10T08:52:09.462Z,11.51
2022-11-10T08:53:09.446Z,11.51
2022-11-10T08:54:09.419Z,11.60
2022-11-10T08:55:09.423Z,11.65
2022-11-10T08:56:09.393Z,11.69
2022-11-10T08:57:09.401Z,11.72
2022-11-10T08:58:09.455Z,11.80
2022-11-10T08:59:09.515Z,11.86
2022-11-10T09:00:10.328Z,11.87
2022-11-10T09:01:10.333Z,11.88
2022-11-10T09:02:09.374Z,11.91
2022-11-10T09:03:09.348Z,11.95
2022-11-10T09:04:10.006Z,11.97
2022-11-10T09:05:09.947Z,12.00
2022-11-10T09:06:09.355Z,12.03
2022-11-10T09:07:09.403Z,12.09
2022-11-10T09:08:09.256Z,12.13
2022-11-10T09:09:09.360Z,12.15
2022-11-10T09:10:09.300Z,12.20
2022-11-10T09:11:09.267Z,12.24
2022-11-10T09:12:09.497Z,12.28
2022-11-10T09:13:09.263Z,12.31
2022-11-10T09:14:09.526Z,12.36
2022-11-10T09:15:09.261Z,12.39
2022-11-10T09:16:09.236Z,12.42
2022-11-10T09:17:09.266Z,12.43
2022-11-10T09:18:09.208Z,12.49
2022-11-10T09:19:09.178Z,12.54
2022-11-10T09:20:09.568Z,12.60
2022-11-10T09:21:09.138Z,12.64
2022-11-10T09:22:09.135Z,12.68
2022-11-10T09:23:09.166Z,12.75
2022-11-10T09:24:09.114Z,12.76
2022-11-10T09:25:09.113Z,12.78
2022-11-10T09:26:09.113Z,12.83
2022-11-10T09:27:09.083Z,12.82
2022-11-10T09:28:09.958Z,12.83
2022-11-10T09:29:09.099Z,12.85
2022-11-10T09:30:13.107Z,12.87
2022-11-10T09:31:09.075Z,12.91
2022-11-10T09:32:09.047Z,12.93
2022-11-10T09:33:09.035Z,12.95
2022-11-10T09:34:09.025Z,12.97
2022-11-10T09:35:08.984Z,13.00
2022-11-10T09:36:09.033Z,13.05
2022-11-10T09:37:08.991Z,13.11
2022-11-10T09:38:08.994Z,13.12
2022-11-10T09:39:08.943Z,13.16
2022-11-10T09:40:12.778Z,13.20
2022-11-10T09:41:08.939Z,13.23
2022-11-10T09:42:08.973Z,13.28
2022-11-10T09:43:08.915Z,13.33
2022-11-10T09:44:08.921Z,13.30
2022-11-10T09:45:08.982Z,13.38
2022-11-10T09:46:08.910Z,13.39
2022-11-10T09:47:12.091Z,13.39
2022-11-10T09:48:08.866Z,13.41
2022-11-10T09:49:08.850Z,13.46
2022-11-10T09:50:08.841Z,13.49
2022-11-10T09:51:08.857Z,13.56
2022-11-10T09:52:08.882Z,13.60
2022-11-10T09:53:08.847Z,13.67
2022-11-10T09:54:08.845Z,13.72
2022-11-10T09:55:08.777Z,13.78
2022-11-10T09:56:08.803Z,13.81
2022-11-10T09:57:08.807Z,13.86
2022-11-10T09:58:08.767Z,13.90
2022-11-10T09:59:08.750Z,13.95
2022-11-10T10:00:08.745Z,13.97
2022-11-10T10:01:08.829Z,14.04
2022-11-10T10:02:08.779Z,14.07
2022-11-10T10:03:08.700Z,14.10
2022-11-10T10:04:08.738Z,14.14
2022-11-10T10:05:08.706Z,14.14
2022-11-10T10:06:08.683Z,14.18
2022-11-10T10:07:11.574Z,14.20
2022-11-10T10:08:08.660Z,14.26
2022-11-10T10:09:08.632Z,14.26
2022-11-10T10:10:11.848Z,14.29
2022-11-10T10:11:08.712Z,14.30
2022-11-10T10:12:08.672Z,14.30
2022-11-10T10:13:08.604Z,14.33
2022-11-10T10:14:08.665Z,14.35
2022-11-10T10:15:08.609Z,14.36
2022-11-10T10:16:08.687Z,14.36
2022-11-10T10:17:08.565Z,14.37
2022-11-10T10:18:08.579Z,14.40
2022-11-10T10:19:08.537Z,14.43
2022-11-10T10:20:08.581Z,14.44
2022-11-10T10:21:08.517Z,14.43
2022-11-10T10:22:08.529Z,14.45
2022-11-10T10:23:08.526Z,14.47
2022-11-10T10:24:12.805Z,14.50
2022-11-10T10:25:08.498Z,14.53
2022-11-10T10:26:08.489Z,14.59
2022-11-10T10:27:08.454Z,14.65
2022-11-10T10:28:08.459Z,14.68
2022-11-10T10:29:08.430Z,14.70
2022-11-10T10:30:08.441Z,14.77
2022-11-10T10:31:08.421Z,14.77
2022-11-10T10:32:08.400Z,14.79
2022-11-10T10:33:08.398Z,14.82
2022-11-10T10:34:08.402Z,14.86
2022-11-10T10:35:08.371Z,14.89
2022-11-10T10:36:08.369Z,14.94
2022-11-10T10:37:08.342Z,14.97
2022-11-10T10:38:08.371Z,15.02
2022-11-10T10:39:08.366Z,15.02
2022-11-10T10:40:08.338Z,15.09
2022-11-10T10:41:08.317Z,15.11
2022-11-10T10:42:08.299Z,15.17
2022-11-10T10:43:08.282Z,15.19
2022-11-10T10:44:08.310Z,15.21
2022-11-10T10:45:08.381Z,15.25
2022-11-10T10:46:08.252Z,15.27
2022-11-10T10:47:08.286Z,15.28
2022-11-10T10:48:08.280Z,15.27
2022-11-10T10:49:27.302Z,15.29
2022-11-10T10:50:08.250Z,15.28
2022-11-10T10:51:08.215Z,15.25
2022-11-10T10:52:08.203Z,15.24
2022-11-10T10:53:08.173Z,15.25
2022-11-10T10:54:08.407Z,15.27
2022-11-10T10:55:08.184Z,15.29
2022-11-10T10:56:08.193Z,15.31
2022-11-10T10:57:08.144Z,15.33
2022-11-10T10:58:08.205Z,15.36
2022-11-10T10:59:08.107Z,15.36
2022-11-10T11:00:08.125Z,15.39
2022-11-10T11:01:08.139Z,15.42
2022-11-10T11:02:08.136Z,15.43
2022-11-10T11:03:08.059Z,15.47
2022-11-10T11:04:08.097Z,15.54
2022-11-10T11:05:08.074Z,15.54
2022-11-10T11:06:08.065Z,15.54
2022-11-10T11:07:08.127Z,15.52
2022-11-10T11:08:08.874Z,15.46
2022-11-10T11:09:08.022Z,15.51
2022-11-10T11:10:08.029Z,15.54
2022-11-10T11:11:07.991Z,15.52
2022-11-10T11:12:07.992Z,15.51
2022-11-10T11:13:07.961Z,15.55
2022-11-10T11:14:08.022Z,15.58
2022-11-10T11:15:07.995Z,15.59
2022-11-10T11:16:07.973Z,15.55
2022-11-10T11:17:08.028Z,15.58
2022-11-10T11:18:07.958Z,15.55
2022-11-10T11:19:07.905Z,15.57
2022-11-10T11:20:07.957Z,15.59
2022-11-10T11:21:07.933Z,15.59
2022-11-10T11:22:07.906Z,15.59
2022-11-10T11:23:07.883Z,15.61
2022-11-10T11:24:07.874Z,15.57
2022-11-10T11:25:07.857Z,15.55
2022-11-10T11:26:07.876Z,15.46
2022-11-10T11:27:07.851Z,15.49
2022-11-10T11:28:07.861Z,15.46
2022-11-10T11:29:07.791Z,15.49
2022-11-10T11:30:07.799Z,15.51
2022-11-10T11:31:07.802Z,15.44
2022-11-10T11:32:07.803Z,15.40
2022-11-10T11:33:07.758Z,15.36
2022-11-10T11:34:07.835Z,15.35
2022-11-10T11:35:07.766Z,15.36
2022-11-10T11:36:07.765Z,15.31
2022-11-10T11:37:12.054Z,15.33
2022-11-10T11:38:07.759Z,15.36
2022-11-10T11:39:07.699Z,15.36
2022-11-10T11:40:07.721Z,15.31
2022-11-10T11:41:07.686Z,15.27
2022-11-10T11:42:07.683Z,15.24
2022-11-10T11:43:07.765Z,15.21
2022-11-10T11:44:07.669Z,15.17
2022-11-10T11:45:07.686Z,15.09
2022-11-10T11:46:07.654Z,15.04
2022-11-10T11:47:07.711Z,15.00
2022-11-10T11:48:07.613Z,14.96
2022-11-10T11:49:07.597Z,14.92
2022-11-10T11:50:07.624Z,14.92
2022-11-10T11:51:07.635Z,14.92
2022-11-10T11:52:07.590Z,14.92
2022-11-10T11:53:07.566Z,14.94
2022-11-10T11:54:07.593Z,14.91
2022-11-10T11:55:07.536Z,14.86
2022-11-10T11:56:07.523Z,14.84
2022-11-10T11:57:07.515Z,14.82
2022-11-10T11:58:07.509Z,14.79
2022-11-10T11:59:07.516Z,14.79
2022-11-10T12:00:07.489Z,14.72
2022-11-10T12:01:07.535Z,14.68
2022-11-10T12:02:07.566Z,14.66
2022-11-10T12:03:07.477Z,14.66
2022-11-10T12:04:07.458Z,14.72
2022-11-10T12:05:07.446Z,14.70
2022-11-10T12:06:07.493Z,14.65
2022-11-10T12:07:07.513Z,14.65
2022-11-10T12:08:07.485Z,14.70
2022-11-10T12:09:07.387Z,14.77
2022-11-10T12:10:07.523Z,14.78
2022-11-10T12:11:07.365Z,14.82
2022-11-10T12:12:07.421Z,14.88
2022-11-10T12:13:07.368Z,14.94
2022-11-10T12:14:07.371Z,14.97
2022-11-10T12:15:07.445Z,15.02
2022-11-10T12:16:07.364Z,15.00
2022-11-10T12:17:07.337Z,14.94
2022-11-10T12:18:07.309Z,14.94
2022-11-10T12:19:07.296Z,14.96
2022-11-10T12:20:07.277Z,14.92
2022-11-10T12:21:07.257Z,14.88
2022-11-10T12:22:07.339Z,14.86
2022-11-10T12:23:07.288Z,14.84
2022-11-10T12:24:10.145Z,14.78
2022-11-10T12:25:07.212Z,14.73
2022-11-10T12:26:07.235Z,14.77
2022-11-10T12:27:07.239Z,14.70
2022-11-10T12:28:07.230Z,14.70
2022-11-10T12:29:07.189Z,14.70
2022-11-10T12:30:07.189Z,14.70
2022-11-10T12:31:07.161Z,14.72
2022-11-10T12:32:07.150Z,14.77
2022-11-10T12:33:07.162Z,14.79
2022-11-10T12:34:07.153Z,14.82
2022-11-10T12:35:07.101Z,14.86
2022-11-10T12:36:07.119Z,14.89
2022-11-10T12:37:07.094Z,14.94
2022-11-10T12:38:07.088Z,15.02
2022-11-10T12:39:07.094Z,15.09
2022-11-10T12:40:07.138Z,15.11
2022-11-10T12:41:07.054Z,15.19
2022-11-10T12:42:07.034Z,15.22
2022-11-10T12:43:07.013Z,15.19
2022-11-10T12:44:07.073Z,15.22
2022-11-10T12:45:07.205Z,15.25
2022-11-10T12:46:07.003Z,15.28
2022-11-10T12:47:06.986Z,15.33
2022-11-10T12:48:06.980Z,15.37
2022-11-10T12:49:06.953Z,15.42
2022-11-10T12:50:07.006Z,15.43
2022-11-10T12:51:06.951Z,15.42
2022-11-10T12:52:06.957Z,15.46
2022-11-10T12:53:06.922Z,15.49
2022-11-10T12:54:06.918Z,15.52
2022-11-10T12:55:06.916Z,15.55
2022-11-10T12:56:06.942Z,15.55
2022-11-10T12:57:06.889Z,15.58
2022-11-10T12:58:06.991Z,15.58
2022-11-10T12:59:06.878Z,15.57
2022-11-10T13:00:06.866Z,15.61
2022-11-10T13:01:06.894Z,15.61
2022-11-10T13:02:07.513Z,15.62
2022-11-10T13:03:06.866Z,15.65
2022-11-10T13:04:06.896Z,15.65
2022-11-10T13:05:06.799Z,15.65
2022-11-10T13:06:06.836Z,15.65
2022-11-10T13:07:12.807Z,15.68